sensor_id;sensor_type;location;lat;lon;timestamp;temperature;humidity
4306;DHT22;2166;49.926;8.608;2023-09-30T00:02:36;16.80;66.30
4306;DHT22;2166;49.926;8.608;2023-09-30T00:05:05;16.80;66.30
4306;DHT22;2166;49.926;8.608;2023-09-30T00:07:35;16.70;66.20
4306;DHT22;2166;49.926;8.608;2023-09-30T00:10:04;16.60;66.20
4306;DHT22;2166;49.926;8.608;2023-09-30T00:12:33;16.50;66.40
4306;DHT22;2166;49.926;8.608;2023-09-30T00:15:02;16.50;66.30
4306;DHT22;2166;49.926;8.608;2023-09-30T00:17:31;16.50;66.30
4306;DHT22;2166;49.926;8.608;2023-09-30T00:19:59;16.50;66.60
4306;DHT22;2166;49.926;8.608;2023-09-30T00:22:28;16.40;66.60
4306;DHT22;2166;49.926;8.608;2023-09-30T00:24:58;16.50;66.60
4306;DHT22;2166;49.926;8.608;2023-09-30T00:27:26;16.50;66.60
4306;DHT22;2166;49.926;8.608;2023-09-30T00:29:54;16.50;66.60
4306;DHT22;2166;49.926;8.608;2023-09-30T00:32:22;16.40;66.60
4306;DHT22;2166;49.926;8.608;2023-09-30T00:34:51;16.40;66.60
4306;DHT22;2166;49.926;8.608;2023-09-30T00:37:20;16.40;66.60
4306;DHT22;2166;49.926;8.608;2023-09-30T00:39:49;16.30;66.60
4306;DHT22;2166;49.926;8.608;2023-09-30T00:42:19;16.30;66.60
4306;DHT22;2166;49.926;8.608;2023-09-30T00:44:48;16.30;66.70
4306;DHT22;2166;49.926;8.608;2023-09-30T00:47:16;16.30;66.60
4306;DHT22;2166;49.926;8.608;2023-09-30T00:49:44;16.30;66.50
4306;DHT22;2166;49.926;8.608;2023-09-30T00:52:13;16.30;66.50
4306;DHT22;2166;49.926;8.608;2023-09-30T00:54:41;16.30;66.60
4306;DHT22;2166;49.926;8.608;2023-09-30T00:57:11;16.30;66.50
4306;DHT22;2166;49.926;8.608;2023-09-30T00:59:41;16.30;66.60
4306;DHT22;2166;49.926;8.608;2023-09-30T01:02:10;16.30;66.60
4306;DHT22;2166;49.926;8.608;2023-09-30T01:04:38;16.40;66.70
4306;DHT22;2166;49.926;8.608;2023-09-30T01:07:08;16.40;66.70
4306;DHT22;2166;49.926;8.608;2023-09-30T01:09:36;16.50;66.80
4306;DHT22;2166;49.926;8.608;2023-09-30T01:12:06;16.60;66.70
4306;DHT22;2166;49.926;8.608;2023-09-30T01:14:36;16.70;66.70
4306;DHT22;2166;49.926;8.608;2023-09-30T01:17:07;16.70;67.00
4306;DHT22;2166;49.926;8.608;2023-09-30T01:19:36;16.70;67.00
4306;DHT22;2166;49.926;8.608;2023-09-30T01:22:06;16.80;67.00
4306;DHT22;2166;49.926;8.608;2023-09-30T01:24:39;16.80;67.10
4306;DHT22;2166;49.926;8.608;2023-09-30T01:27:09;16.90;67.20
4306;DHT22;2166;49.926;8.608;2023-09-30T01:29:37;16.90;67.30
4306;DHT22;2166;49.926;8.608;2023-09-30T01:32:06;16.90;67.40
4306;DHT22;2166;49.926;8.608;2023-09-30T01:34:35;16.90;67.60
4306;DHT22;2166;49.926;8.608;2023-09-30T01:37:05;16.90;67.50
4306;DHT22;2166;49.926;8.608;2023-09-30T01:39:35;16.80;67.60
4306;DHT22;2166;49.926;8.608;2023-09-30T01:42:03;16.80;67.60
4306;DHT22;2166;49.926;8.608;2023-09-30T01:44:33;16.70;67.40
4306;DHT22;2166;49.926;8.608;2023-09-30T01:47:01;16.70;67.20
4306;DHT22;2166;49.926;8.608;2023-09-30T01:49:29;16.70;67.30
4306;DHT22;2166;49.926;8.608;2023-09-30T01:51:58;16.70;67.30
4306;DHT22;2166;49.926;8.608;2023-09-30T01:54:27;16.70;67.10
4306;DHT22;2166;49.926;8.608;2023-09-30T01:56:55;16.70;67.30
4306;DHT22;2166;49.926;8.608;2023-09-30T01:59:25;16.70;67.30
4306;DHT22;2166;49.926;8.608;2023-09-30T02:01:54;16.60;67.10
4306;DHT22;2166;49.926;8.608;2023-09-30T02:04:23;16.60;67.20
4306;DHT22;2166;49.926;8.608;2023-09-30T02:06:51;16.60;67.30
4306;DHT22;2166;49.926;8.608;2023-09-30T02:09:19;16.50;67.40
4306;DHT22;2166;49.926;8.608;2023-09-30T02:11:49;16.50;67.70
4306;DHT22;2166;49.926;8.608;2023-09-30T02:14:19;16.40;67.60
4306;DHT22;2166;49.926;8.608;2023-09-30T02:16:47;16.40;67.50
4306;DHT22;2166;49.926;8.608;2023-09-30T02:19:16;16.40;67.40
4306;DHT22;2166;49.926;8.608;2023-09-30T02:21:44;16.40;67.30
4306;DHT22;2166;49.926;8.608;2023-09-30T02:24:12;16.30;67.40
4306;DHT22;2166;49.926;8.608;2023-09-30T02:26:41;16.30;67.30
4306;DHT22;2166;49.926;8.608;2023-09-30T02:29:11;16.30;67.30
4306;DHT22;2166;49.926;8.608;2023-09-30T02:31:40;16.30;67.50
4306;DHT22;2166;49.926;8.608;2023-09-30T02:34:08;16.30;67.70
4306;DHT22;2166;49.926;8.608;2023-09-30T02:36:39;16.20;67.70
4306;DHT22;2166;49.926;8.608;2023-09-30T02:39:07;16.20;67.40
4306;DHT22;2166;49.926;8.608;2023-09-30T02:41:36;16.20;67.50
4306;DHT22;2166;49.926;8.608;2023-09-30T02:44:05;16.20;67.50
4306;DHT22;2166;49.926;8.608;2023-09-30T02:46:35;16.20;67.60
4306;DHT22;2166;49.926;8.608;2023-09-30T02:49:05;16.30;67.80
4306;DHT22;2166;49.926;8.608;2023-09-30T02:51:34;16.20;68.10
4306;DHT22;2166;49.926;8.608;2023-09-30T02:54:03;16.20;67.80
4306;DHT22;2166;49.926;8.608;2023-09-30T02:56:33;16.20;67.40
4306;DHT22;2166;49.926;8.608;2023-09-30T02:59:02;16.10;67.80
4306;DHT22;2166;49.926;8.608;2023-09-30T03:01:31;16.10;67.80
4306;DHT22;2166;49.926;8.608;2023-09-30T03:04:02;16.20;68.00
4306;DHT22;2166;49.926;8.608;2023-09-30T03:06:34;16.20;67.80
4306;DHT22;2166;49.926;8.608;2023-09-30T03:09:05;16.20;67.80
4306;DHT22;2166;49.926;8.608;2023-09-30T03:11:34;16.30;68.10
4306;DHT22;2166;49.926;8.608;2023-09-30T03:14:02;16.20;68.10
4306;DHT22;2166;49.926;8.608;2023-09-30T03:16:30;16.20;68.20
4306;DHT22;2166;49.926;8.608;2023-09-30T03:18:59;16.10;68.20
4306;DHT22;2166;49.926;8.608;2023-09-30T03:21:29;16.00;68.00
4306;DHT22;2166;49.926;8.608;2023-09-30T03:23:57;15.90;67.80
4306;DHT22;2166;49.926;8.608;2023-09-30T03:26:28;15.80;67.90
4306;DHT22;2166;49.926;8.608;2023-09-30T03:28:56;15.60;67.80
4306;DHT22;2166;49.926;8.608;2023-09-30T03:31:25;15.50;67.60
4306;DHT22;2166;49.926;8.608;2023-09-30T03:33:53;15.30;67.40
4306;DHT22;2166;49.926;8.608;2023-09-30T03:36:22;15.10;67.40
4306;DHT22;2166;49.926;8.608;2023-09-30T03:38:53;15.00;67.20
4306;DHT22;2166;49.926;8.608;2023-09-30T03:41:26;14.90;67.20
4306;DHT22;2166;49.926;8.608;2023-09-30T03:43:55;14.90;67.00
4306;DHT22;2166;49.926;8.608;2023-09-30T03:46:24;14.80;67.00
4306;DHT22;2166;49.926;8.608;2023-09-30T03:48:53;14.70;67.00
4306;DHT22;2166;49.926;8.608;2023-09-30T03:51:22;14.60;67.00
4306;DHT22;2166;49.926;8.608;2023-09-30T03:53:53;14.50;67.00
4306;DHT22;2166;49.926;8.608;2023-09-30T03:56:22;14.40;67.10
4306;DHT22;2166;49.926;8.608;2023-09-30T03:58:50;14.30;67.00
4306;DHT22;2166;49.926;8.608;2023-09-30T04:01:19;14.30;67.10
4306;DHT22;2166;49.926;8.608;2023-09-30T04:03:47;14.30;67.10
4306;DHT22;2166;49.926;8.608;2023-09-30T04:06:16;14.20;67.20
4306;DHT22;2166;49.926;8.608;2023-09-30T04:08:44;14.20;67.10
4306;DHT22;2166;49.926;8.608;2023-09-30T04:11:14;14.20;67.20
4306;DHT22;2166;49.926;8.608;2023-09-30T04:13:45;14.10;67.10
4306;DHT22;2166;49.926;8.608;2023-09-30T04:16:13;14.10;67.20
4306;DHT22;2166;49.926;8.608;2023-09-30T04:18:41;14.10;67.10
4306;DHT22;2166;49.926;8.608;2023-09-30T04:21:10;14.10;67.10
4306;DHT22;2166;49.926;8.608;2023-09-30T04:23:38;14.00;67.10
4306;DHT22;2166;49.926;8.608;2023-09-30T04:26:08;14.10;67.10
4306;DHT22;2166;49.926;8.608;2023-09-30T04:28:38;14.10;67.10
4306;DHT22;2166;49.926;8.608;2023-09-30T04:31:06;14.20;67.10
4306;DHT22;2166;49.926;8.608;2023-09-30T04:33:37;14.20;67.10
4306;DHT22;2166;49.926;8.608;2023-09-30T04:36:06;14.20;67.00
4306;DHT22;2166;49.926;8.608;2023-09-30T04:38:36;14.20;67.00
4306;DHT22;2166;49.926;8.608;2023-09-30T04:41:05;14.10;67.00
4306;DHT22;2166;49.926;8.608;2023-09-30T04:43:34;14.10;67.00
4306;DHT22;2166;49.926;8.608;2023-09-30T04:46:06;14.10;67.00
4306;DHT22;2166;49.926;8.608;2023-09-30T04:48:35;14.10;67.00
4306;DHT22;2166;49.926;8.608;2023-09-30T04:51:06;14.00;67.00
4306;DHT22;2166;49.926;8.608;2023-09-30T04:53:37;14.00;67.10
4306;DHT22;2166;49.926;8.608;2023-09-30T04:56:05;13.90;67.10
4306;DHT22;2166;49.926;8.608;2023-09-30T04:58:34;13.90;67.10
4306;DHT22;2166;49.926;8.608;2023-09-30T05:01:02;13.80;67.20
4306;DHT22;2166;49.926;8.608;2023-09-30T05:03:32;13.70;67.20
4306;DHT22;2166;49.926;8.608;2023-09-30T05:06:02;13.60;67.20
4306;DHT22;2166;49.926;8.608;2023-09-30T05:08:31;13.60;67.20
4306;DHT22;2166;49.926;8.608;2023-09-30T05:11:00;13.40;67.20
4306;DHT22;2166;49.926;8.608;2023-09-30T05:13:28;13.40;67.20
4306;DHT22;2166;49.926;8.608;2023-09-30T05:15:56;13.30;67.30
4306;DHT22;2166;49.926;8.608;2023-09-30T05:18:26;13.30;67.40
4306;DHT22;2166;49.926;8.608;2023-09-30T05:20:56;13.20;67.30
4306;DHT22;2166;49.926;8.608;2023-09-30T05:23:25;13.20;67.30
4306;DHT22;2166;49.926;8.608;2023-09-30T05:25:53;13.20;67.40
4306;DHT22;2166;49.926;8.608;2023-09-30T05:28:21;13.10;67.40
4306;DHT22;2166;49.926;8.608;2023-09-30T05:30:49;13.00;67.60
4306;DHT22;2166;49.926;8.608;2023-09-30T05:33:18;13.00;67.60
4306;DHT22;2166;49.926;8.608;2023-09-30T05:35:47;13.00;67.70
4306;DHT22;2166;49.926;8.608;2023-09-30T05:38:17;12.90;67.70
4306;DHT22;2166;49.926;8.608;2023-09-30T05:40:47;12.90;67.70
4306;DHT22;2166;49.926;8.608;2023-09-30T05:43:16;12.80;67.80
4306;DHT22;2166;49.926;8.608;2023-09-30T05:45:44;12.80;67.80
4306;DHT22;2166;49.926;8.608;2023-09-30T05:48:16;12.80;67.90
4306;DHT22;2166;49.926;8.608;2023-09-30T05:50:45;12.80;67.90
4306;DHT22;2166;49.926;8.608;2023-09-30T05:53:16;12.80;68.00
4306;DHT22;2166;49.926;8.608;2023-09-30T05:55:45;12.90;68.10
4306;DHT22;2166;49.926;8.608;2023-09-30T05:58:14;13.00;68.20
4306;DHT22;2166;49.926;8.608;2023-09-30T06:00:43;13.20;68.10
4306;DHT22;2166;49.926;8.608;2023-09-30T06:03:12;13.30;68.00
4306;DHT22;2166;49.926;8.608;2023-09-30T06:05:41;13.40;68.00
4306;DHT22;2166;49.926;8.608;2023-09-30T06:08:09;13.60;68.10
4306;DHT22;2166;49.926;8.608;2023-09-30T06:10:43;13.90;68.00
4306;DHT22;2166;49.926;8.608;2023-09-30T06:13:12;14.00;67.80
4306;DHT22;2166;49.926;8.608;2023-09-30T06:15:43;14.20;67.60
4306;DHT22;2166;49.926;8.608;2023-09-30T06:18:13;14.40;67.10
4306;DHT22;2166;49.926;8.608;2023-09-30T06:20:42;14.60;66.60
4306;DHT22;2166;49.926;8.608;2023-09-30T06:23:10;14.80;66.60
4306;DHT22;2166;49.926;8.608;2023-09-30T06:25:38;15.00;66.60
4306;DHT22;2166;49.926;8.608;2023-09-30T06:28:08;15.20;66.60
4306;DHT22;2166;49.926;8.608;2023-09-30T06:30:56;15.60;66.80
4306;DHT22;2166;49.926;8.608;2023-09-30T06:33:24;16.30;66.80
4306;DHT22;2166;49.926;8.608;2023-09-30T06:35:56;16.90;69.10
4306;DHT22;2166;49.926;8.608;2023-09-30T06:38:27;17.60;69.60
4306;DHT22;2166;49.926;8.608;2023-09-30T06:40:55;18.40;70.80
4306;DHT22;2166;49.926;8.608;2023-09-30T06:43:24;19.10;71.60
4306;DHT22;2166;49.926;8.608;2023-09-30T06:45:55;19.60;71.70
4306;DHT22;2166;49.926;8.608;2023-09-30T06:48:23;19.90;71.80
4306;DHT22;2166;49.926;8.608;2023-09-30T06:50:52;20.20;72.10
4306;DHT22;2166;49.926;8.608;2023-09-30T06:53:20;20.40;72.70
4306;DHT22;2166;49.926;8.608;2023-09-30T06:55:50;20.50;72.60
4306;DHT22;2166;49.926;8.608;2023-09-30T06:58:19;20.50;72.70
4306;DHT22;2166;49.926;8.608;2023-09-30T07:00:50;20.50;72.50
4306;DHT22;2166;49.926;8.608;2023-09-30T07:03:18;21.00;72.40
4306;DHT22;2166;49.926;8.608;2023-09-30T07:05:52;21.40;72.60
4306;DHT22;2166;49.926;8.608;2023-09-30T07:08:23;21.50;72.20
4306;DHT22;2166;49.926;8.608;2023-09-30T07:10:51;21.70;72.20
4306;DHT22;2166;49.926;8.608;2023-09-30T07:13:20;22.30;71.80
4306;DHT22;2166;49.926;8.608;2023-09-30T07:15:49;23.10;71.30
4306;DHT22;2166;49.926;8.608;2023-09-30T07:18:18;24.10;70.00
4306;DHT22;2166;49.926;8.608;2023-09-30T07:20:46;25.00;67.30
4306;DHT22;2166;49.926;8.608;2023-09-30T07:23:15;25.80;64.50
4306;DHT22;2166;49.926;8.608;2023-09-30T07:25:46;26.50;62.70
4306;DHT22;2166;49.926;8.608;2023-09-30T07:28:15;26.70;61.90
4306;DHT22;2166;49.926;8.608;2023-09-30T07:30:43;27.20;59.70
4306;DHT22;2166;49.926;8.608;2023-09-30T07:33:13;27.60;59.00
4306;DHT22;2166;49.926;8.608;2023-09-30T07:35:42;27.80;58.40
4306;DHT22;2166;49.926;8.608;2023-09-30T07:38:10;27.50;58.60
4306;DHT22;2166;49.926;8.608;2023-09-30T07:40:38;27.40;58.30
4306;DHT22;2166;49.926;8.608;2023-09-30T07:43:06;27.90;57.70
4306;DHT22;2166;49.926;8.608;2023-09-30T07:45:34;28.20;56.80
4306;DHT22;2166;49.926;8.608;2023-09-30T07:48:03;28.70;55.50
4306;DHT22;2166;49.926;8.608;2023-09-30T07:50:33;29.00;54.50
4306;DHT22;2166;49.926;8.608;2023-09-30T07:53:02;29.50;54.40
4306;DHT22;2166;49.926;8.608;2023-09-30T07:55:30;30.20;52.50
4306;DHT22;2166;49.926;8.608;2023-09-30T07:57:58;30.80;52.50
4306;DHT22;2166;49.926;8.608;2023-09-30T08:00:28;31.30;50.60
4306;DHT22;2166;49.926;8.608;2023-09-30T08:02:56;32.00;49.10
4306;DHT22;2166;49.926;8.608;2023-09-30T08:05:27;32.70;46.80
4306;DHT22;2166;49.926;8.608;2023-09-30T08:07:57;33.40;46.60
4306;DHT22;2166;49.926;8.608;2023-09-30T08:10:25;33.60;46.00
4306;DHT22;2166;49.926;8.608;2023-09-30T08:12:55;33.70;44.60
4306;DHT22;2166;49.926;8.608;2023-09-30T08:15:25;33.00;44.90
4306;DHT22;2166;49.926;8.608;2023-09-30T08:17:54;32.80;45.30
4306;DHT22;2166;49.926;8.608;2023-09-30T08:20:22;32.00;46.20
4306;DHT22;2166;49.926;8.608;2023-09-30T08:22:51;31.40;46.10
4306;DHT22;2166;49.926;8.608;2023-09-30T08:25:21;31.50;46.50
4306;DHT22;2166;49.926;8.608;2023-09-30T08:27:50;32.00;46.10
4306;DHT22;2166;49.926;8.608;2023-09-30T08:30:18;32.90;45.20
4306;DHT22;2166;49.926;8.608;2023-09-30T08:32:47;32.80;43.70
4306;DHT22;2166;49.926;8.608;2023-09-30T08:35:16;32.50;43.70
4306;DHT22;2166;49.926;8.608;2023-09-30T08:37:45;31.70;44.30
4306;DHT22;2166;49.926;8.608;2023-09-30T08:40:13;31.50;45.30
4306;DHT22;2166;49.926;8.608;2023-09-30T08:42:44;31.80;44.40
4306;DHT22;2166;49.926;8.608;2023-09-30T08:45:15;32.10;43.00
4306;DHT22;2166;49.926;8.608;2023-09-30T08:47:45;32.30;42.30
4306;DHT22;2166;49.926;8.608;2023-09-30T08:50:15;32.30;42.10
4306;DHT22;2166;49.926;8.608;2023-09-30T08:52:45;32.30;42.80
4306;DHT22;2166;49.926;8.608;2023-09-30T08:55:13;32.30;43.80
4306;DHT22;2166;49.926;8.608;2023-09-30T08:57:44;32.00;43.80
4306;DHT22;2166;49.926;8.608;2023-09-30T09:00:13;32.00;44.70
4306;DHT22;2166;49.926;8.608;2023-09-30T09:02:42;32.20;44.00
4306;DHT22;2166;49.926;8.608;2023-09-30T09:05:11;32.80;42.90
4306;DHT22;2166;49.926;8.608;2023-09-30T09:07:39;33.60;41.70
4306;DHT22;2166;49.926;8.608;2023-09-30T09:10:11;33.70;41.60
4306;DHT22;2166;49.926;8.608;2023-09-30T09:12:41;33.60;41.40
4306;DHT22;2166;49.926;8.608;2023-09-30T09:15:23;33.50;41.70
4306;DHT22;2166;49.926;8.608;2023-09-30T09:17:53;33.60;41.20
4306;DHT22;2166;49.926;8.608;2023-09-30T09:20:23;33.70;42.00
4306;DHT22;2166;49.926;8.608;2023-09-30T09:22:53;34.60;40.50
4306;DHT22;2166;49.926;8.608;2023-09-30T09:25:23;35.20;38.50
4306;DHT22;2166;49.926;8.608;2023-09-30T09:27:52;35.00;38.70
4306;DHT22;2166;49.926;8.608;2023-09-30T09:30:25;35.30;38.90
4306;DHT22;2166;49.926;8.608;2023-09-30T09:32:56;35.80;38.00
4306;DHT22;2166;49.926;8.608;2023-09-30T09:35:26;35.60;38.60
4306;DHT22;2166;49.926;8.608;2023-09-30T09:37:57;35.40;38.20
4306;DHT22;2166;49.926;8.608;2023-09-30T09:40:27;35.70;38.10
4306;DHT22;2166;49.926;8.608;2023-09-30T09:42:56;35.80;37.80
4306;DHT22;2166;49.926;8.608;2023-09-30T09:45:27;35.40;37.50
4306;DHT22;2166;49.926;8.608;2023-09-30T09:48:00;35.10;36.30
4306;DHT22;2166;49.926;8.608;2023-09-30T09:50:28;35.00;37.00
4306;DHT22;2166;49.926;8.608;2023-09-30T09:52:59;34.70;38.10
4306;DHT22;2166;49.926;8.608;2023-09-30T09:55:28;34.60;37.50
4306;DHT22;2166;49.926;8.608;2023-09-30T09:57:57;34.80;37.10
4306;DHT22;2166;49.926;8.608;2023-09-30T10:00:28;35.60;36.50
4306;DHT22;2166;49.926;8.608;2023-09-30T10:02:59;35.90;34.90
4306;DHT22;2166;49.926;8.608;2023-09-30T10:05:29;36.10;35.70
4306;DHT22;2166;49.926;8.608;2023-09-30T10:08:01;36.80;34.20
4306;DHT22;2166;49.926;8.608;2023-09-30T10:10:31;37.10;33.60
4306;DHT22;2166;49.926;8.608;2023-09-30T10:13:03;36.90;33.70
4306;DHT22;2166;49.926;8.608;2023-09-30T10:15:40;37.00;33.00
4306;DHT22;2166;49.926;8.608;2023-09-30T10:18:10;36.70;33.80
4306;DHT22;2166;49.926;8.608;2023-09-30T10:20:42;36.10;34.70
4306;DHT22;2166;49.926;8.608;2023-09-30T10:23:23;35.80;34.60
4306;DHT22;2166;49.926;8.608;2023-09-30T10:25:54;36.10;34.90
4306;DHT22;2166;49.926;8.608;2023-09-30T10:28:38;35.90;34.50
4306;DHT22;2166;49.926;8.608;2023-09-30T10:31:11;36.10;33.80
4306;DHT22;2166;49.926;8.608;2023-09-30T10:36:43;36.00;35.50
4306;DHT22;2166;49.926;8.608;2023-09-30T10:39:12;36.70;34.00
4306;DHT22;2166;49.926;8.608;2023-09-30T10:41:51;37.30;33.00
4306;DHT22;2166;49.926;8.608;2023-09-30T10:44:35;37.00;33.50
4306;DHT22;2166;49.926;8.608;2023-09-30T10:47:38;36.50;34.50
4306;DHT22;2166;49.926;8.608;2023-09-30T10:53:11;36.60;33.80
4306;DHT22;2166;49.926;8.608;2023-09-30T10:55:39;35.90;34.90
4306;DHT22;2166;49.926;8.608;2023-09-30T10:58:09;36.30;34.70
4306;DHT22;2166;49.926;8.608;2023-09-30T11:00:38;36.90;34.80
4306;DHT22;2166;49.926;8.608;2023-09-30T11:03:11;37.70;33.80
4306;DHT22;2166;49.926;8.608;2023-09-30T11:05:47;37.60;33.50
4306;DHT22;2166;49.926;8.608;2023-09-30T11:08:37;38.10;32.70
4306;DHT22;2166;49.926;8.608;2023-09-30T11:11:05;38.90;31.70
4306;DHT22;2166;49.926;8.608;2023-09-30T11:13:34;38.90;31.80
4306;DHT22;2166;49.926;8.608;2023-09-30T11:16:04;38.60;31.80
4306;DHT22;2166;49.926;8.608;2023-09-30T11:18:34;38.00;32.40
4306;DHT22;2166;49.926;8.608;2023-09-30T11:21:09;37.80;32.50
4306;DHT22;2166;49.926;8.608;2023-09-30T11:23:41;37.30;33.70
4306;DHT22;2166;49.926;8.608;2023-09-30T11:26:12;37.30;32.80
4306;DHT22;2166;49.926;8.608;2023-09-30T11:28:42;37.40;32.40
4306;DHT22;2166;49.926;8.608;2023-09-30T11:31:12;37.30;33.40
4306;DHT22;2166;49.926;8.608;2023-09-30T11:33:52;37.10;33.70
4306;DHT22;2166;49.926;8.608;2023-09-30T11:36:24;36.50;34.10
4306;DHT22;2166;49.926;8.608;2023-09-30T11:38:53;36.60;32.60
4306;DHT22;2166;49.926;8.608;2023-09-30T11:41:22;36.00;33.10
4306;DHT22;2166;49.926;8.608;2023-09-30T11:44:01;35.50;33.40
4306;DHT22;2166;49.926;8.608;2023-09-30T11:46:32;34.60;34.00
4306;DHT22;2166;49.926;8.608;2023-09-30T11:49:03;34.00;34.50
4306;DHT22;2166;49.926;8.608;2023-09-30T11:51:42;34.00;36.20
4306;DHT22;2166;49.926;8.608;2023-09-30T11:54:14;34.10;35.20
4306;DHT22;2166;49.926;8.608;2023-09-30T11:56:43;34.60;34.70
4306;DHT22;2166;49.926;8.608;2023-09-30T11:59:14;34.60;34.80
4306;DHT22;2166;49.926;8.608;2023-09-30T12:01:42;34.70;35.10
4306;DHT22;2166;49.926;8.608;2023-09-30T12:04:23;35.10;34.50
4306;DHT22;2166;49.926;8.608;2023-09-30T12:06:51;35.00;34.60
4306;DHT22;2166;49.926;8.608;2023-09-30T12:09:20;34.60;34.80
4306;DHT22;2166;49.926;8.608;2023-09-30T12:11:53;34.80;35.10
4306;DHT22;2166;49.926;8.608;2023-09-30T12:14:23;35.40;33.90
4306;DHT22;2166;49.926;8.608;2023-09-30T12:16:51;35.60;34.00
4306;DHT22;2166;49.926;8.608;2023-09-30T12:19:20;35.70;34.00
4306;DHT22;2166;49.926;8.608;2023-09-30T12:21:50;36.40;32.80
4306;DHT22;2166;49.926;8.608;2023-09-30T12:24:19;36.50;32.70
4306;DHT22;2166;49.926;8.608;2023-09-30T12:26:52;36.90;32.20
4306;DHT22;2166;49.926;8.608;2023-09-30T12:29:36;37.40;32.20
4306;DHT22;2166;49.926;8.608;2023-09-30T12:32:06;37.10;32.10
4306;DHT22;2166;49.926;8.608;2023-09-30T12:34:35;37.40;32.80
4306;DHT22;2166;49.926;8.608;2023-09-30T12:37:05;37.10;31.20
4306;DHT22;2166;49.926;8.608;2023-09-30T12:39:34;37.40;32.00
4306;DHT22;2166;49.926;8.608;2023-09-30T12:42:04;37.40;31.80
4306;DHT22;2166;49.926;8.608;2023-09-30T12:44:36;37.80;31.20
4306;DHT22;2166;49.926;8.608;2023-09-30T12:47:05;37.60;31.60
4306;DHT22;2166;49.926;8.608;2023-09-30T12:49:34;37.30;31.60
4306;DHT22;2166;49.926;8.608;2023-09-30T12:52:02;37.10;32.00
4306;DHT22;2166;49.926;8.608;2023-09-30T12:54:34;36.60;32.10
4306;DHT22;2166;49.926;8.608;2023-09-30T12:57:03;36.10;32.50
4306;DHT22;2166;49.926;8.608;2023-09-30T12:59:34;35.70;34.00
4306;DHT22;2166;49.926;8.608;2023-09-30T13:02:03;35.30;34.90
4306;DHT22;2166;49.926;8.608;2023-09-30T13:04:32;35.40;34.30
4306;DHT22;2166;49.926;8.608;2023-09-30T13:07:00;35.90;34.30
4306;DHT22;2166;49.926;8.608;2023-09-30T13:09:29;36.60;33.20
4306;DHT22;2166;49.926;8.608;2023-09-30T13:11:59;37.10;33.00
4306;DHT22;2166;49.926;8.608;2023-09-30T13:14:28;36.90;33.20
4306;DHT22;2166;49.926;8.608;2023-09-30T13:16:56;36.60;33.00
4306;DHT22;2166;49.926;8.608;2023-09-30T13:19:25;35.70;33.70
4306;DHT22;2166;49.926;8.608;2023-09-30T13:21:53;35.60;33.00
4306;DHT22;2166;49.926;8.608;2023-09-30T13:24:22;35.00;33.80
4306;DHT22;2166;49.926;8.608;2023-09-30T13:26:51;34.40;34.10
4306;DHT22;2166;49.926;8.608;2023-09-30T13:29:22;34.50;34.70
4306;DHT22;2166;49.926;8.608;2023-09-30T13:31:50;34.60;34.00
4306;DHT22;2166;49.926;8.608;2023-09-30T13:34:19;34.20;33.70
4306;DHT22;2166;49.926;8.608;2023-09-30T13:36:47;33.80;35.20
4306;DHT22;2166;49.926;8.608;2023-09-30T13:39:15;33.80;35.40
4306;DHT22;2166;49.926;8.608;2023-09-30T13:41:44;34.20;35.40
4306;DHT22;2166;49.926;8.608;2023-09-30T13:44:14;34.50;34.90
4306;DHT22;2166;49.926;8.608;2023-09-30T13:46:44;34.60;34.20
4306;DHT22;2166;49.926;8.608;2023-09-30T13:49:12;34.30;34.50
4306;DHT22;2166;49.926;8.608;2023-09-30T13:51:41;34.20;34.10
4306;DHT22;2166;49.926;8.608;2023-09-30T13:54:10;33.80;34.20
4306;DHT22;2166;49.926;8.608;2023-09-30T13:56:38;33.00;35.70
4306;DHT22;2166;49.926;8.608;2023-09-30T13:59:06;32.60;36.30
4306;DHT22;2166;49.926;8.608;2023-09-30T14:01:37;32.30;37.30
4306;DHT22;2166;49.926;8.608;2023-09-30T14:04:10;32.20;37.20
4306;DHT22;2166;49.926;8.608;2023-09-30T14:06:39;31.80;37.10
4306;DHT22;2166;49.926;8.608;2023-09-30T14:09:07;31.50;37.20
4306;DHT22;2166;49.926;8.608;2023-09-30T14:11:59;31.20;37.30
4306;DHT22;2166;49.926;8.608;2023-09-30T14:14:27;30.70;38.10
4306;DHT22;2166;49.926;8.608;2023-09-30T14:16:56;30.20;39.00
4306;DHT22;2166;49.926;8.608;2023-09-30T14:19:25;30.00;39.60
4306;DHT22;2166;49.926;8.608;2023-09-30T14:21:55;30.10;39.20
4306;DHT22;2166;49.926;8.608;2023-09-30T14:24:25;30.00;39.30
4306;DHT22;2166;49.926;8.608;2023-09-30T14:26:53;30.10;40.00
4306;DHT22;2166;49.926;8.608;2023-09-30T14:29:22;29.90;40.50
4306;DHT22;2166;49.926;8.608;2023-09-30T14:31:51;29.90;40.30
4306;DHT22;2166;49.926;8.608;2023-09-30T14:34:19;29.80;40.50
4306;DHT22;2166;49.926;8.608;2023-09-30T14:36:49;29.60;40.60
4306;DHT22;2166;49.926;8.608;2023-09-30T14:39:18;29.50;40.70
4306;DHT22;2166;49.926;8.608;2023-09-30T14:41:46;29.30;41.40
4306;DHT22;2166;49.926;8.608;2023-09-30T14:44:14;29.30;41.80
4306;DHT22;2166;49.926;8.608;2023-09-30T14:46:44;29.20;42.00
4306;DHT22;2166;49.926;8.608;2023-09-30T14:49:12;29.10;41.70
4306;DHT22;2166;49.926;8.608;2023-09-30T14:51:41;29.10;42.20
4306;DHT22;2166;49.926;8.608;2023-09-30T14:54:12;29.00;41.90
4306;DHT22;2166;49.926;8.608;2023-09-30T14:56:41;28.70;42.40
4306;DHT22;2166;49.926;8.608;2023-09-30T14:59:09;28.30;42.80
4306;DHT22;2166;49.926;8.608;2023-09-30T15:01:37;27.80;43.80
4306;DHT22;2166;49.926;8.608;2023-09-30T15:04:06;27.40;44.60
4306;DHT22;2166;49.926;8.608;2023-09-30T15:06:36;27.00;45.00
4306;DHT22;2166;49.926;8.608;2023-09-30T15:09:05;26.70;45.10
4306;DHT22;2166;49.926;8.608;2023-09-30T15:11:37;26.40;45.60
4306;DHT22;2166;49.926;8.608;2023-09-30T15:14:06;26.20;45.90
4306;DHT22;2166;49.926;8.608;2023-09-30T15:16:35;26.00;46.30
4306;DHT22;2166;49.926;8.608;2023-09-30T15:19:04;25.80;45.50
4306;DHT22;2166;49.926;8.608;2023-09-30T15:21:32;25.70;46.30
4306;DHT22;2166;49.926;8.608;2023-09-30T15:24:00;25.70;46.50
4306;DHT22;2166;49.926;8.608;2023-09-30T15:26:30;25.60;47.50
4306;DHT22;2166;49.926;8.608;2023-09-30T15:29:00;25.50;47.70
4306;DHT22;2166;49.926;8.608;2023-09-30T15:31:30;25.40;48.10
4306;DHT22;2166;49.926;8.608;2023-09-30T15:33:59;25.20;49.00
4306;DHT22;2166;49.926;8.608;2023-09-30T15:36:28;25.10;49.70
4306;DHT22;2166;49.926;8.608;2023-09-30T15:38:56;24.90;49.50
4306;DHT22;2166;49.926;8.608;2023-09-30T15:41:24;24.80;50.20
4306;DHT22;2166;49.926;8.608;2023-09-30T15:43:58;24.70;50.40
4306;DHT22;2166;49.926;8.608;2023-09-30T15:46:32;24.70;51.30
4306;DHT22;2166;49.926;8.608;2023-09-30T15:49:01;24.50;51.50
4306;DHT22;2166;49.926;8.608;2023-09-30T15:51:29;24.30;51.20
4306;DHT22;2166;49.926;8.608;2023-09-30T15:53:57;24.20;52.00
4306;DHT22;2166;49.926;8.608;2023-09-30T15:56:26;24.00;52.90
4306;DHT22;2166;49.926;8.608;2023-09-30T15:59:07;23.80;52.50
4306;DHT22;2166;49.926;8.608;2023-09-30T16:01:37;23.50;53.40
4306;DHT22;2166;49.926;8.608;2023-09-30T16:04:06;23.40;53.80
4306;DHT22;2166;49.926;8.608;2023-09-30T16:06:34;23.10;54.20
4306;DHT22;2166;49.926;8.608;2023-09-30T16:09:03;22.90;55.50
4306;DHT22;2166;49.926;8.608;2023-09-30T16:11:32;22.70;56.30
4306;DHT22;2166;49.926;8.608;2023-09-30T16:14:02;22.50;56.70
4306;DHT22;2166;49.926;8.608;2023-09-30T16:16:30;22.30;57.10
4306;DHT22;2166;49.926;8.608;2023-09-30T16:19:00;22.20;57.40
4306;DHT22;2166;49.926;8.608;2023-09-30T16:21:29;22.00;58.50
4306;DHT22;2166;49.926;8.608;2023-09-30T16:23:57;21.90;59.30
4306;DHT22;2166;49.926;8.608;2023-09-30T16:26:26;21.70;59.20